sensor_id;sensor_type;location;lat;lon;timestamp;temperature;humidity
15156;DHT22;7678;50.058;8.306;2023-02-27T00:00:00;-0.20;78.00
15156;DHT22;7678;50.058;8.306;2023-02-27T00:02:29;-0.30;78.30
15156;DHT22;7678;50.058;8.306;2023-02-27T00:04:59;-0.30;80.20
15156;DHT22;7678;50.058;8.306;2023-02-27T00:07:28;-0.40;81.00
15156;DHT22;7678;50.058;8.306;2023-02-27T00:09:58;-0.30;79.40
15156;DHT22;7678;50.058;8.306;2023-02-27T00:12:26;-0.40;81.10
15156;DHT22;7678;50.058;8.306;2023-02-27T00:14:56;-0.40;81.50
15156;DHT22;7678;50.058;8.306;2023-02-27T00:17:24;-0.40;81.30
15156;DHT22;7678;50.058;8.306;2023-02-27T00:19:55;-0.40;83.70
15156;DHT22;7678;50.058;8.306;2023-02-27T00:22:23;-0.40;83.40
15156;DHT22;7678;50.058;8.306;2023-02-27T00:24:51;-0.40;81.70
15156;DHT22;7678;50.058;8.306;2023-02-27T00:27:21;-0.50;85.70
15156;DHT22;7678;50.058;8.306;2023-02-27T00:29:49;-0.50;87.40
15156;DHT22;7678;50.058;8.306;2023-02-27T00:32:17;-0.50;86.60
15156;DHT22;7678;50.058;8.306;2023-02-27T00:34:49;-0.40;84.40
15156;DHT22;7678;50.058;8.306;2023-02-27T00:37:17;-0.40;84.80
15156;DHT22;7678;50.058;8.306;2023-02-27T00:39:45;-0.50;84.70
15156;DHT22;7678;50.058;8.306;2023-02-27T00:42:13;-0.60;86.70
15156;DHT22;7678;50.058;8.306;2023-02-27T00:44:43;-0.50;86.80
15156;DHT22;7678;50.058;8.306;2023-02-27T00:47:11;-0.60;90.10
15156;DHT22;7678;50.058;8.306;2023-02-27T00:49:39;-0.60;88.70
15156;DHT22;7678;50.058;8.306;2023-02-27T00:52:07;-0.60;89.70
15156;DHT22;7678;50.058;8.306;2023-02-27T00:54:36;-0.50;88.60
15156;DHT22;7678;50.058;8.306;2023-02-27T00:57:04;-0.50;87.00
15156;DHT22;7678;50.058;8.306;2023-02-27T00:59:32;-0.60;90.20
15156;DHT22;7678;50.058;8.306;2023-02-27T01:02:01;-0.60;90.20
15156;DHT22;7678;50.058;8.306;2023-02-27T01:04:32;-0.60;90.10
15156;DHT22;7678;50.058;8.306;2023-02-27T01:07:00;-0.60;90.50
15156;DHT22;7678;50.058;8.306;2023-02-27T01:09:29;-0.60;92.10
15156;DHT22;7678;50.058;8.306;2023-02-27T01:11:58;-0.70;92.50
15156;DHT22;7678;50.058;8.306;2023-02-27T01:14:27;-0.70;92.50
15156;DHT22;7678;50.058;8.306;2023-02-27T01:16:55;-0.70;93.40
15156;DHT22;7678;50.058;8.306;2023-02-27T01:19:25;-0.60;93.00
15156;DHT22;7678;50.058;8.306;2023-02-27T01:21:53;-0.50;91.80
15156;DHT22;7678;50.058;8.306;2023-02-27T01:24:24;-0.60;94.30
15156;DHT22;7678;50.058;8.306;2023-02-27T01:26:52;-0.60;92.60
15156;DHT22;7678;50.058;8.306;2023-02-27T01:29:21;-0.60;93.30
15156;DHT22;7678;50.058;8.306;2023-02-27T01:31:49;-0.70;93.70
15156;DHT22;7678;50.058;8.306;2023-02-27T01:34:19;-0.70;94.60
15156;DHT22;7678;50.058;8.306;2023-02-27T01:36:48;-0.70;93.60
15156;DHT22;7678;50.058;8.306;2023-02-27T01:39:17;-0.70;94.40
15156;DHT22;7678;50.058;8.306;2023-02-27T01:41:48;-0.70;94.60
15156;DHT22;7678;50.058;8.306;2023-02-27T01:44:20;-0.70;93.50
15156;DHT22;7678;50.058;8.306;2023-02-27T01:46:48;-0.60;93.10
15156;DHT22;7678;50.058;8.306;2023-02-27T01:49:21;-0.70;94.10
15156;DHT22;7678;50.058;8.306;2023-02-27T01:51:54;-0.80;94.60
15156;DHT22;7678;50.058;8.306;2023-02-27T01:54:29;-0.70;93.70
15156;DHT22;7678;50.058;8.306;2023-02-27T01:56:58;-0.70;94.40
15156;DHT22;7678;50.058;8.306;2023-02-27T01:59:29;-0.70;91.90
15156;DHT22;7678;50.058;8.306;2023-02-27T02:01:57;-0.60;90.40
15156;DHT22;7678;50.058;8.306;2023-02-27T02:04:30;-0.60;90.60
15156;DHT22;7678;50.058;8.306;2023-02-27T02:07:06;-0.70;91.40
15156;DHT22;7678;50.058;8.306;2023-02-27T02:09:38;-0.80;92.90
15156;DHT22;7678;50.058;8.306;2023-02-27T02:12:08;-0.70;90.70
15156;DHT22;7678;50.058;8.306;2023-02-27T02:14:38;-0.70;90.80
15156;DHT22;7678;50.058;8.306;2023-02-27T02:17:14;-0.60;87.80
15156;DHT22;7678;50.058;8.306;2023-02-27T02:20:27;-0.70;91.00
15156;DHT22;7678;50.058;8.306;2023-02-27T02:26:24;-0.60;85.60
15156;DHT22;7678;50.058;8.306;2023-02-27T02:35:39;-0.60;85.10
15156;DHT22;7678;50.058;8.306;2023-02-27T02:41:33;-0.70;85.70
15156;DHT22;7678;50.058;8.306;2023-02-27T02:44:17;-0.80;89.40
15156;DHT22;7678;50.058;8.306;2023-02-27T02:46:58;-0.80;90.30
15156;DHT22;7678;50.058;8.306;2023-02-27T02:49:33;-0.90;91.20
15156;DHT22;7678;50.058;8.306;2023-02-27T02:52:10;-0.80;89.50
15156;DHT22;7678;50.058;8.306;2023-02-27T02:54:44;-0.90;90.70
15156;DHT22;7678;50.058;8.306;2023-02-27T02:57:18;-0.90;90.20
15156;DHT22;7678;50.058;8.306;2023-02-27T02:59:54;-0.90;90.70
15156;DHT22;7678;50.058;8.306;2023-02-27T03:02:25;-1.00;92.70
15156;DHT22;7678;50.058;8.306;2023-02-27T03:04:57;-1.00;91.90
15156;DHT22;7678;50.058;8.306;2023-02-27T03:07:30;-0.80;89.40
15156;DHT22;7678;50.058;8.306;2023-02-27T03:10:04;-0.80;90.20
15156;DHT22;7678;50.058;8.306;2023-02-27T03:12:39;-0.80;89.70
15156;DHT22;7678;50.058;8.306;2023-02-27T03:15:12;-0.70;87.40
15156;DHT22;7678;50.058;8.306;2023-02-27T03:17:46;-0.90;89.60
15156;DHT22;7678;50.058;8.306;2023-02-27T03:20:19;-0.80;88.20
15156;DHT22;7678;50.058;8.306;2023-02-27T03:22:51;-0.80;87.80
15156;DHT22;7678;50.058;8.306;2023-02-27T03:25:24;-0.80;87.10
15156;DHT22;7678;50.058;8.306;2023-02-27T03:27:57;-0.80;88.40
15156;DHT22;7678;50.058;8.306;2023-02-27T03:30:31;-0.80;88.10
15156;DHT22;7678;50.058;8.306;2023-02-27T03:33:07;-0.80;83.80
15156;DHT22;7678;50.058;8.306;2023-02-27T03:35:43;-0.80;85.10
15156;DHT22;7678;50.058;8.306;2023-02-27T03:38:19;-0.80;84.30
15156;DHT22;7678;50.058;8.306;2023-02-27T03:40:54;-0.80;82.40
15156;DHT22;7678;50.058;8.306;2023-02-27T03:43:29;-0.90;84.20
15156;DHT22;7678;50.058;8.306;2023-02-27T03:46:03;-0.80;81.00
15156;DHT22;7678;50.058;8.306;2023-02-27T03:48:40;-0.80;80.80
15156;DHT22;7678;50.058;8.306;2023-02-27T03:51:11;-0.80;80.40
15156;DHT22;7678;50.058;8.306;2023-02-27T03:53:44;-0.90;82.70
15156;DHT22;7678;50.058;8.306;2023-02-27T03:56:17;-0.80;78.70
15156;DHT22;7678;50.058;8.306;2023-02-27T03:58:48;-0.80;80.50
15156;DHT22;7678;50.058;8.306;2023-02-27T04:01:17;-0.80;79.80
15156;DHT22;7678;50.058;8.306;2023-02-27T04:03:50;-0.90;81.30
15156;DHT22;7678;50.058;8.306;2023-02-27T04:06:20;-0.90;79.20
15156;DHT22;7678;50.058;8.306;2023-02-27T04:09:10;-0.90;77.60
15156;DHT22;7678;50.058;8.306;2023-02-27T04:11:55;-0.90;77.70
15156;DHT22;7678;50.058;8.306;2023-02-27T04:14:38;-1.00;81.60
15156;DHT22;7678;50.058;8.306;2023-02-27T04:17:20;-0.90;79.40
15156;DHT22;7678;50.058;8.306;2023-02-27T04:20:15;-1.00;78.30
15156;DHT22;7678;50.058;8.306;2023-02-27T04:22:47;-0.90;76.50
15156;DHT22;7678;50.058;8.306;2023-02-27T04:25:35;-1.00;78.20
15156;DHT22;7678;50.058;8.306;2023-02-27T04:28:13;-1.00;77.90
15156;DHT22;7678;50.058;8.306;2023-02-27T04:30:59;-1.00;81.00
15156;DHT22;7678;50.058;8.306;2023-02-27T04:33:39;-1.00;76.70
15156;DHT22;7678;50.058;8.306;2023-02-27T04:36:13;-1.00;77.60
15156;DHT22;7678;50.058;8.306;2023-02-27T04:38:46;-1.10;79.70
15156;DHT22;7678;50.058;8.306;2023-02-27T04:41:20;-1.00;78.20
15156;DHT22;7678;50.058;8.306;2023-02-27T04:43:52;-1.10;80.60
15156;DHT22;7678;50.058;8.306;2023-02-27T04:46:24;-1.10;80.30
15156;DHT22;7678;50.058;8.306;2023-02-27T04:48:58;-1.20;81.20
15156;DHT22;7678;50.058;8.306;2023-02-27T04:51:32;-1.10;77.90
15156;DHT22;7678;50.058;8.306;2023-02-27T04:54:18;-1.10;79.30
15156;DHT22;7678;50.058;8.306;2023-02-27T04:56:51;-1.20;80.80
15156;DHT22;7678;50.058;8.306;2023-02-27T04:59:31;-1.20;82.20
15156;DHT22;7678;50.058;8.306;2023-02-27T05:02:02;-1.10;79.20
15156;DHT22;7678;50.058;8.306;2023-02-27T05:04:36;-1.10;79.70
15156;DHT22;7678;50.058;8.306;2023-02-27T05:07:07;-1.20;82.60
15156;DHT22;7678;50.058;8.306;2023-02-27T05:09:43;-1.30;83.20
15156;DHT22;7678;50.058;8.306;2023-02-27T05:12:16;-1.30;82.40
15156;DHT22;7678;50.058;8.306;2023-02-27T05:14:51;-1.30;83.50
15156;DHT22;7678;50.058;8.306;2023-02-27T05:17:25;-1.20;80.10
15156;DHT22;7678;50.058;8.306;2023-02-27T05:19:58;-1.20;81.40
15156;DHT22;7678;50.058;8.306;2023-02-27T05:22:33;-1.20;81.30
15156;DHT22;7678;50.058;8.306;2023-02-27T05:25:09;-1.20;82.80
15156;DHT22;7678;50.058;8.306;2023-02-27T05:27:43;-1.20;82.30
15156;DHT22;7678;50.058;8.306;2023-02-27T05:30:22;-1.20;82.40
15156;DHT22;7678;50.058;8.306;2023-02-27T05:32:53;-1.20;80.80
15156;DHT22;7678;50.058;8.306;2023-02-27T05:35:25;-1.30;82.70
15156;DHT22;7678;50.058;8.306;2023-02-27T05:38:01;-1.30;83.50
15156;DHT22;7678;50.058;8.306;2023-02-27T05:40:35;-1.30;83.60
15156;DHT22;7678;50.058;8.306;2023-02-27T05:43:09;-1.10;79.50
15156;DHT22;7678;50.058;8.306;2023-02-27T05:45:43;-1.30;82.60
15156;DHT22;7678;50.058;8.306;2023-02-27T05:48:16;-1.20;83.10
15156;DHT22;7678;50.058;8.306;2023-02-27T05:50:50;-1.20;83.40
15156;DHT22;7678;50.058;8.306;2023-02-27T05:53:21;-1.20;83.10
15156;DHT22;7678;50.058;8.306;2023-02-27T05:55:53;-1.30;84.90
15156;DHT22;7678;50.058;8.306;2023-02-27T05:58:25;-1.30;86.00
15156;DHT22;7678;50.058;8.306;2023-02-27T06:00:58;-1.30;86.70
15156;DHT22;7678;50.058;8.306;2023-02-27T06:03:29;-1.10;84.80
15156;DHT22;7678;50.058;8.306;2023-02-27T06:06:01;-1.10;85.70
15156;DHT22;7678;50.058;8.306;2023-02-27T06:08:29;-1.30;87.30
15156;DHT22;7678;50.058;8.306;2023-02-27T06:10:57;-1.20;86.50
15156;DHT22;7678;50.058;8.306;2023-02-27T06:13:25;-1.10;86.70
15156;DHT22;7678;50.058;8.306;2023-02-27T06:15:55;-1.10;89.60
15156;DHT22;7678;50.058;8.306;2023-02-27T06:18:26;-1.20;89.30
15156;DHT22;7678;50.058;8.306;2023-02-27T06:20:54;-1.20;89.10
15156;DHT22;7678;50.058;8.306;2023-02-27T06:23:22;-1.10;88.60
15156;DHT22;7678;50.058;8.306;2023-02-27T06:25:50;-1.10;90.00
15156;DHT22;7678;50.058;8.306;2023-02-27T06:28:19;-1.10;90.30
15156;DHT22;7678;50.058;8.306;2023-02-27T06:30:51;-1.00;89.50
15156;DHT22;7678;50.058;8.306;2023-02-27T06:33:20;-1.10;90.80
15156;DHT22;7678;50.058;8.306;2023-02-27T06:35:52;-1.10;90.90
15156;DHT22;7678;50.058;8.306;2023-02-27T06:38:26;-1.10;90.60
15156;DHT22;7678;50.058;8.306;2023-02-27T06:40:57;-1.00;90.50
15156;DHT22;7678;50.058;8.306;2023-02-27T06:43:26;-1.00;90.00
15156;DHT22;7678;50.058;8.306;2023-02-27T06:45:55;-1.00;90.60
15156;DHT22;7678;50.058;8.306;2023-02-27T06:48:27;-1.00;90.90
15156;DHT22;7678;50.058;8.306;2023-02-27T06:50:55;-0.90;89.20
15156;DHT22;7678;50.058;8.306;2023-02-27T06:53:24;-0.90;90.90
15156;DHT22;7678;50.058;8.306;2023-02-27T06:55:56;-0.90;91.20
15156;DHT22;7678;50.058;8.306;2023-02-27T06:58:24;-0.90;91.10
15156;DHT22;7678;50.058;8.306;2023-02-27T07:01:07;-0.80;91.30
15156;DHT22;7678;50.058;8.306;2023-02-27T07:03:37;-0.70;90.50
15156;DHT22;7678;50.058;8.306;2023-02-27T07:06:05;-0.70;90.60
15156;DHT22;7678;50.058;8.306;2023-02-27T07:08:34;-0.70;90.90
15156;DHT22;7678;50.058;8.306;2023-02-27T07:11:24;-0.60;90.80
15156;DHT22;7678;50.058;8.306;2023-02-27T07:13:53;-0.60;90.50
15156;DHT22;7678;50.058;8.306;2023-02-27T07:16:21;-0.50;89.60
15156;DHT22;7678;50.058;8.306;2023-02-27T07:18:51;-0.50;90.70
15156;DHT22;7678;50.058;8.306;2023-02-27T07:21:21;-0.40;90.10
15156;DHT22;7678;50.058;8.306;2023-02-27T07:23:49;-0.40;88.80
15156;DHT22;7678;50.058;8.306;2023-02-27T07:26:17;-0.40;87.50
15156;DHT22;7678;50.058;8.306;2023-02-27T07:28:45;-0.30;88.70
15156;DHT22;7678;50.058;8.306;2023-02-27T07:31:13;-0.20;88.00
15156;DHT22;7678;50.058;8.306;2023-02-27T07:33:41;-0.20;90.00
15156;DHT22;7678;50.058;8.306;2023-02-27T07:36:11;-0.20;86.30
15156;DHT22;7678;50.058;8.306;2023-02-27T07:38:39;-0.10;86.10
15156;DHT22;7678;50.058;8.306;2023-02-27T07:41:10;-0.10;85.50
15156;DHT22;7678;50.058;8.306;2023-02-27T07:43:55;0.00;85.30
15156;DHT22;7678;50.058;8.306;2023-02-27T07:46:36;0.00;85.30
15156;DHT22;7678;50.058;8.306;2023-02-27T07:49:04;0.10;83.40
15156;DHT22;7678;50.058;8.306;2023-02-27T07:51:34;0.10;84.10
15156;DHT22;7678;50.058;8.306;2023-02-27T07:54:02;0.20;83.60
15156;DHT22;7678;50.058;8.306;2023-02-27T07:56:30;0.20;79.60
15156;DHT22;7678;50.058;8.306;2023-02-27T07:58:59;0.20;76.60
15156;DHT22;7678;50.058;8.306;2023-02-27T08:01:27;0.30;75.80
15156;DHT22;7678;50.058;8.306;2023-02-27T08:03:56;0.30;74.00
15156;DHT22;7678;50.058;8.306;2023-02-27T08:06:24;0.30;76.10
15156;DHT22;7678;50.058;8.306;2023-02-27T08:11:47;0.40;74.70
15156;DHT22;7678;50.058;8.306;2023-02-27T08:14:16;0.40;77.00
15156;DHT22;7678;50.058;8.306;2023-02-27T08:16:45;0.60;75.20
15156;DHT22;7678;50.058;8.306;2023-02-27T08:19:23;0.60;73.20
15156;DHT22;7678;50.058;8.306;2023-02-27T08:21:52;0.60;72.30
15156;DHT22;7678;50.058;8.306;2023-02-27T08:24:39;0.60;72.00
15156;DHT22;7678;50.058;8.306;2023-02-27T08:27:10;0.60;70.40
15156;DHT22;7678;50.058;8.306;2023-02-27T08:29:38;0.60;71.10
15156;DHT22;7678;50.058;8.306;2023-02-27T08:32:08;0.70;71.70
15156;DHT22;7678;50.058;8.306;2023-02-27T08:34:47;0.80;73.00
15156;DHT22;7678;50.058;8.306;2023-02-27T08:37:16;0.80;70.80
15156;DHT22;7678;50.058;8.306;2023-02-27T08:39:47;0.80;70.30
15156;DHT22;7678;50.058;8.306;2023-02-27T08:42:17;0.80;67.90
15156;DHT22;7678;50.058;8.306;2023-02-27T08:44:48;0.70;68.80
15156;DHT22;7678;50.058;8.306;2023-02-27T08:47:17;0.80;67.70
15156;DHT22;7678;50.058;8.306;2023-02-27T08:49:46;0.80;68.40
15156;DHT22;7678;50.058;8.306;2023-02-27T08:52:15;0.70;71.10
15156;DHT22;7678;50.058;8.306;2023-02-27T08:54:43;0.80;70.30
15156;DHT22;7678;50.058;8.306;2023-02-27T08:57:12;0.90;70.80
15156;DHT22;7678;50.058;8.306;2023-02-27T08:59:42;0.80;71.20
15156;DHT22;7678;50.058;8.306;2023-02-27T09:02:10;0.90;70.70
15156;DHT22;7678;50.058;8.306;2023-02-27T09:04:39;0.90;72.00
15156;DHT22;7678;50.058;8.306;2023-02-27T09:07:10;0.90;73.40
15156;DHT22;7678;50.058;8.306;2023-02-27T09:09:39;0.90;72.80
15156;DHT22;7678;50.058;8.306;2023-02-27T09:12:09;0.90;72.60
15156;DHT22;7678;50.058;8.306;2023-02-27T09:14:38;0.80;71.90
15156;DHT22;7678;50.058;8.306;2023-02-27T09:17:08;0.90;73.70
15156;DHT22;7678;50.058;8.306;2023-02-27T09:19:36;1.10;72.30
15156;DHT22;7678;50.058;8.306;2023-02-27T09:22:04;1.00;73.50
15156;DHT22;7678;50.058;8.306;2023-02-27T09:24:32;1.00;71.80
15156;DHT22;7678;50.058;8.306;2023-02-27T09:27:00;1.00;71.90
15156;DHT22;7678;50.058;8.306;2023-02-27T09:29:28;1.00;70.90
15156;DHT22;7678;50.058;8.306;2023-02-27T09:31:56;1.10;73.40
15156;DHT22;7678;50.058;8.306;2023-02-27T09:34:26;1.10;70.30
15156;DHT22;7678;50.058;8.306;2023-02-27T09:36:57;1.20;72.50
15156;DHT22;7678;50.058;8.306;2023-02-27T09:39:26;1.30;77.90
15156;DHT22;7678;50.058;8.306;2023-02-27T09:41:58;1.30;74.80
15156;DHT22;7678;50.058;8.306;2023-02-27T09:44:34;1.30;75.30
15156;DHT22;7678;50.058;8.306;2023-02-27T09:47:16;1.30;75.50
15156;DHT22;7678;50.058;8.306;2023-02-27T09:50:04;1.40;72.50
15156;DHT22;7678;50.058;8.306;2023-02-27T09:52:34;1.30;75.80
15156;DHT22;7678;50.058;8.306;2023-02-27T09:55:04;1.40;75.30
15156;DHT22;7678;50.058;8.306;2023-02-27T09:57:41;1.40;75.80
15156;DHT22;7678;50.058;8.306;2023-02-27T10:00:24;1.50;74.60
15156;DHT22;7678;50.058;8.306;2023-02-27T10:03:02;1.50;74.40
15156;DHT22;7678;50.058;8.306;2023-02-27T10:05:39;1.30;73.90
15156;DHT22;7678;50.058;8.306;2023-02-27T10:08:17;1.30;78.00
15156;DHT22;7678;50.058;8.306;2023-02-27T10:10:54;1.40;76.90
15156;DHT22;7678;50.058;8.306;2023-02-27T10:13:38;1.40;74.40
15156;DHT22;7678;50.058;8.306;2023-02-27T10:16:13;1.40;74.40
15156;DHT22;7678;50.058;8.306;2023-02-27T10:18:50;1.40;75.70
15156;DHT22;7678;50.058;8.306;2023-02-27T10:21:24;1.40;76.60
15156;DHT22;7678;50.058;8.306;2023-02-27T10:24:00;1.30;78.40
15156;DHT22;7678;50.058;8.306;2023-02-27T10:26:37;1.40;75.50
15156;DHT22;7678;50.058;8.306;2023-02-27T10:29:15;1.60;79.20
15156;DHT22;7678;50.058;8.306;2023-02-27T10:31:46;1.70;77.50
15156;DHT22;7678;50.058;8.306;2023-02-27T10:34:17;1.60;77.50
15156;DHT22;7678;50.058;8.306;2023-02-27T10:36:48;1.80;76.40
15156;DHT22;7678;50.058;8.306;2023-02-27T10:39:17;1.90;74.60
15156;DHT22;7678;50.058;8.306;2023-02-27T10:42:06;2.10;77.90
15156;DHT22;7678;50.058;8.306;2023-02-27T10:44:39;2.10;76.00
15156;DHT22;7678;50.058;8.306;2023-02-27T10:47:14;2.20;74.50
15156;DHT22;7678;50.058;8.306;2023-02-27T10:49:42;2.00;72.30
15156;DHT22;7678;50.058;8.306;2023-02-27T10:52:15;2.20;73.40
15156;DHT22;7678;50.058;8.306;2023-02-27T10:54:45;2.20;73.30
15156;DHT22;7678;50.058;8.306;2023-02-27T10:57:25;2.00;72.20
15156;DHT22;7678;50.058;8.306;2023-02-27T10:59:57;2.10;72.60
15156;DHT22;7678;50.058;8.306;2023-02-27T11:02:36;2.20;74.10
15156;DHT22;7678;50.058;8.306;2023-02-27T11:05:14;2.20;70.90
15156;DHT22;7678;50.058;8.306;2023-02-27T11:07:47;2.30;73.90
15156;DHT22;7678;50.058;8.306;2023-02-27T11:10:19;2.50;70.60
15156;DHT22;7678;50.058;8.306;2023-02-27T11:13:10;2.50;69.30
15156;DHT22;7678;50.058;8.306;2023-02-27T11:16:04;2.50;70.10
15156;DHT22;7678;50.058;8.306;2023-02-27T11:18:35;2.70;68.70
15156;DHT22;7678;50.058;8.306;2023-02-27T11:21:25;2.60;67.90
15156;DHT22;7678;50.058;8.306;2023-02-27T11:23:58;2.80;68.90
15156;DHT22;7678;50.058;8.306;2023-02-27T11:26:30;2.60;67.20
15156;DHT22;7678;50.058;8.306;2023-02-27T11:29:12;2.80;67.50
15156;DHT22;7678;50.058;8.306;2023-02-27T11:31:46;3.00;64.50
15156;DHT22;7678;50.058;8.306;2023-02-27T11:34:27;3.20;64.00
15156;DHT22;7678;50.058;8.306;2023-02-27T11:36:59;3.40;63.20
15156;DHT22;7678;50.058;8.306;2023-02-27T11:39:33;3.30;62.20
15156;DHT22;7678;50.058;8.306;2023-02-27T11:42:15;3.20;60.40
15156;DHT22;7678;50.058;8.306;2023-02-27T11:44:51;3.40;60.70
15156;DHT22;7678;50.058;8.306;2023-02-27T11:47:25;3.30;62.10
15156;DHT22;7678;50.058;8.306;2023-02-27T11:50:25;3.30;63.80
15156;DHT22;7678;50.058;8.306;2023-02-27T11:53:07;3.40;60.60
15156;DHT22;7678;50.058;8.306;2023-02-27T11:55:42;3.80;58.70
15156;DHT22;7678;50.058;8.306;2023-02-27T11:58:13;3.80;57.60
15156;DHT22;7678;50.058;8.306;2023-02-27T12:00:46;3.70;58.10
15156;DHT22;7678;50.058;8.306;2023-02-27T12:03:21;3.90;56.90
15156;DHT22;7678;50.058;8.306;2023-02-27T12:05:54;4.10;57.40
15156;DHT22;7678;50.058;8.306;2023-02-27T12:08:30;3.60;56.20
15156;DHT22;7678;50.058;8.306;2023-02-27T12:11:05;3.60;57.80
15156;DHT22;7678;50.058;8.306;2023-02-27T12:13:41;3.60;57.50
15156;DHT22;7678;50.058;8.306;2023-02-27T12:16:18;3.60;58.30
15156;DHT22;7678;50.058;8.306;2023-02-27T12:18:52;3.60;57.90
15156;DHT22;7678;50.058;8.306;2023-02-27T12:21:28;3.30;58.30
15156;DHT22;7678;50.058;8.306;2023-02-27T12:24:06;3.40;58.20
15156;DHT22;7678;50.058;8.306;2023-02-27T12:26:42;3.60;57.60
15156;DHT22;7678;50.058;8.306;2023-02-27T12:29:18;3.30;57.50
15156;DHT22;7678;50.058;8.306;2023-02-27T12:31:53;3.80;58.00
15156;DHT22;7678;50.058;8.306;2023-02-27T12:34:27;4.00;57.80
15156;DHT22;7678;50.058;8.306;2023-02-27T12:37:07;4.30;57.80
15156;DHT22;7678;50.058;8.306;2023-02-27T12:39:38;3.80;56.10
15156;DHT22;7678;50.058;8.306;2023-02-27T12:42:36;4.00;56.30
15156;DHT22;7678;50.058;8.306;2023-02-27T12:45:28;4.10;55.80
15156;DHT22;7678;50.058;8.306;2023-02-27T12:48:09;4.30;55.20
15156;DHT22;7678;50.058;8.306;2023-02-27T12:50:47;4.70;54.60
15156;DHT22;7678;50.058;8.306;2023-02-27T12:53:33;4.90;54.40
15156;DHT22;7678;50.058;8.306;2023-02-27T12:56:12;4.70;52.40
15156;DHT22;7678;50.058;8.306;2023-02-27T12:58:47;4.90;52.60
15156;DHT22;7678;50.058;8.306;2023-02-27T13:01:25;4.50;52.60
15156;DHT22;7678;50.058;8.306;2023-02-27T13:04:01;4.20;53.10
15156;DHT22;7678;50.058;8.306;2023-02-27T13:06:33;3.90;53.10
15156;DHT22;7678;50.058;8.306;2023-02-27T13:09:14;3.70;53.60
15156;DHT22;7678;50.058;8.306;2023-02-27T13:11:56;3.70;53.20
15156;DHT22;7678;50.058;8.306;2023-02-27T13:14:36;3.60;54.10
15156;DHT22;7678;50.058;8.306;2023-02-27T13:17:17;3.60;53.40
15156;DHT22;7678;50.058;8.306;2023-02-27T13:19:50;3.60;53.40
15156;DHT22;7678;50.058;8.306;2023-02-27T13:22:26;3.50;52.70
15156;DHT22;7678;50.058;8.306;2023-02-27T13:25:00;3.50;51.10
15156;DHT22;7678;50.058;8.306;2023-02-27T13:27:32;3.40;51.40
15156;DHT22;7678;50.058;8.306;2023-02-27T13:30:16;3.50;50.10
15156;DHT22;7678;50.058;8.306;2023-02-27T13:32:53;3.60;48.90
15156;DHT22;7678;50.058;8.306;2023-02-27T13:35:29;3.50;49.30
15156;DHT22;7678;50.058;8.306;2023-02-27T13:38:27;3.80;49.10
15156;DHT22;7678;50.058;8.306;2023-02-27T13:40:51;4.20;48.90
15156;DHT22;7678;50.058;8.306;2023-02-27T13:43:28;4.60;47.30
15156;DHT22;7678;50.058;8.306;2023-02-27T13:46:24;4.60;46.30
15156;DHT22;7678;50.058;8.306;2023-02-27T13:48:53;4.50;46.20
15156;DHT22;7678;50.058;8.306;2023-02-27T13:51:52;4.50;46.70
15156;DHT22;7678;50.058;8.306;2023-02-27T13:54:26;5.00;46.70
15156;DHT22;7678;50.058;8.306;2023-02-27T13:57:18;5.10;45.60
15156;DHT22;7678;50.058;8.306;2023-02-27T13:59:59;5.10;45.20
15156;DHT22;7678;50.058;8.306;2023-02-27T14:02:51;5.10;44.30
15156;DHT22;7678;50.058;8.306;2023-02-27T14:05:29;5.40;44.40
15156;DHT22;7678;50.058;8.306;2023-02-27T14:08:03;5.50;44.90
15156;DHT22;7678;50.058;8.306;2023-02-27T14:10:33;5.60;43.50
15156;DHT22;7678;50.058;8.306;2023-02-27T14:13:04;5.60;44.40
15156;DHT22;7678;50.058;8.306;2023-02-27T14:15:54;5.60;45.00
15156;DHT22;7678;50.058;8.306;2023-02-27T14:18:53;5.30;44.20
15156;DHT22;7678;50.058;8.306;2023-02-27T14:21:57;5.10;44.40
15156;DHT22;7678;50.058;8.306;2023-02-27T14:24:34;4.70;44.50
15156;DHT22;7678;50.058;8.306;2023-02-27T14:27:43;4.60;46.50
15156;DHT22;7678;50.058;8.306;2023-02-27T14:30:25;4.40;45.00
15156;DHT22;7678;50.058;8.306;2023-02-27T14:33:17;4.70;45.10
15156;DHT22;7678;50.058;8.306;2023-02-27T14:36:14;4.70;44.10
15156;DHT22;7678;50.058;8.306;2023-02-27T14:38:44;4.70;44.30
15156;DHT22;7678;50.058;8.306;2023-02-27T14:41:34;4.80;44.70
15156;DHT22;7678;50.058;8.306;2023-02-27T14:44:18;4.90;44.60
15156;DHT22;7678;50.058;8.306;2023-02-27T14:46:50;5.00;43.70
15156;DHT22;7678;50.058;8.306;2023-02-27T14:49:21;4.70;43.40
15156;DHT22;7678;50.058;8.306;2023-02-27T14:51:51;4.90;44.50
15156;DHT22;7678;50.058;8.306;2023-02-27T14:54:22;4.80;44.50
15156;DHT22;7678;50.058;8.306;2023-02-27T14:56:57;4.70;43.50
15156;DHT22;7678;50.058;8.306;2023-02-27T14:59:28;4.80;44.20
15156;DHT22;7678;50.058;8.306;2023-02-27T15:01:58;4.70;44.50
15156;DHT22;7678;50.058;8.306;2023-02-27T15:04:31;4.80;43.80
15156;DHT22;7678;50.058;8.306;2023-02-27T15:07:01;4.60;44.20
15156;DHT22;7678;50.058;8.306;2023-02-27T15:09:34;4.60;45.30
15156;DHT22;7678;50.058;8.306;2023-02-27T15:12:05;4.70;44.20
15156;DHT22;7678;50.058;8.306;2023-02-27T15:14:35;4.70;43.20
15156;DHT22;7678;50.058;8.306;2023-02-27T15:17:14;4.80;43.00
15156;DHT22;7678;50.058;8.306;2023-02-27T15:19:47;4.70;43.50
15156;DHT22;7678;50.058;8.306;2023-02-27T15:22:20;4.70;43.30
15156;DHT22;7678;50.058;8.306;2023-02-27T15:25:25;5.00;43.50
15156;DHT22;7678;50.058;8.306;2023-02-27T15:27:56;5.00;43.20
15156;DHT22;7678;50.058;8.306;2023-02-27T15:30:26;4.80;43.60
15156;DHT22;7678;50.058;8.306;2023-02-27T15:32:56;4.70;43.20
15156;DHT22;7678;50.058;8.306;2023-02-27T15:35:34;4.60;43.00
15156;DHT22;7678;50.058;8.306;2023-02-27T15:38:23;4.80;43.60
15156;DHT22;7678;50.058;8.306;2023-02-27T15:40:53;4.70;43.30
15156;DHT22;7678;50.058;8.306;2023-02-27T15:43:29;4.50;42.70
15156;DHT22;7678;50.058;8.306;2023-02-27T15:45:58;4.40;43.70
15156;DHT22;7678;50.058;8.306;2023-02-27T15:48:27;4.30;43.80
15156;DHT22;7678;50.058;8.306;2023-02-27T15:50:57;4.30;43.90
15156;DHT22;7678;50.058;8.306;2023-02-27T15:53:30;4.20;43.20
15156;DHT22;7678;50.058;8.306;2023-02-27T15:56:02;4.40;44.90
15156;DHT22;7678;50.058;8.306;2023-02-27T15:58:34;4.50;45.30
15156;DHT22;7678;50.058;8.306;2023-02-27T16:01:07;4.30;43.90
15156;DHT22;7678;50.058;8.306;2023-02-27T16:03:42;4.30;43.90
15156;DHT22;7678;50.058;8.306;2023-02-27T16:06:15;4.20;45.40
15156;DHT22;7678;50.058;8.306;2023-02-27T16:08:50;4.10;44.80
15156;DHT22;7678;50.058;8.306;2023-02-27T16:14:38;4.00;45.30
15156;DHT22;7678;50.058;8.306;2023-02-27T16:17:24;3.90;45.90
15156;DHT22;7678;50.058;8.306;2023-02-27T16:19:52;3.80;46.30
15156;DHT22;7678;50.058;8.306;2023-02-27T16:22:21;3.70;45.10
15156;DHT22;7678;50.058;8.306;2023-02-27T16:24:52;3.70;46.70
15156;DHT22;7678;50.058;8.306;2023-02-27T16:27:23;3.70;47.00
15156;DHT22;7678;50.058;8.306;2023-02-27T16:29:53;3.60;46.40
15156;DHT22;7678;50.058;8.306;2023-02-27T16:32:24;3.60;46.30
15156;DHT22;7678;50.058;8.306;2023-02-27T16:34:59;3.60;46.70
15156;DHT22;7678;50.058;8.306;2023-02-27T16:37:34;3.50;46.20
15156;DHT22;7678;50.058;8.306;2023-02-27T16:40:12;3.50;46.30
15156;DHT22;7678;50.058;8.306;2023-02-27T16:42:41;3.50;47.00
15156;DHT22;7678;50.058;8.306;2023-02-27T16:45:14;3.50;46.50
15156;DHT22;7678;50.058;8.306;2023-02-27T16:47:43;3.40;46.40
15156;DHT22;7678;50.058;8.306;2023-02-27T16:50:13;3.40;47.10
15156;DHT22;7678;50.058;8.306;2023-02-27T16:52:43;3.30;48.10
15156;DHT22;7678;50.058;8.306;2023-02-27T16:55:13;3.30;47.20
15156;DHT22;7678;50.058;8.306;2023-02-27T16:57:41;3.30;46.90